createdAt,value
2022-11-24T00:01:48.283Z,2.10
2022-11-24T00:04:17.537Z,1.60
2022-11-24T00:06:46.420Z,1.70
2022-11-24T00:09:15.890Z,1.90
2022-11-24T00:11:44.746Z,1.60
2022-11-24T00:14:14.055Z,0.63
2022-11-24T00:16:43.176Z,0.70
2022-11-24T00:19:17.051Z,0.85
2022-11-24T00:21:48.499Z,0.70
2022-11-24T00:24:17.548Z,0.80
2022-11-24T00:26:47.353Z,1.10
2022-11-24T00:29:16.517Z,1.17
2022-11-24T00:31:45.773Z,1.58
2022-11-24T00:34:16.235Z,1.70
2022-11-24T00:36:46.439Z,2.00
2022-11-24T00:39:16.921Z,2.60
2022-11-24T00:41:46.305Z,2.90
2022-11-24T00:44:16.199Z,3.45
2022-11-24T00:46:45.465Z,3.45
2022-11-24T00:49:15.210Z,3.77
2022-11-24T00:51:44.689Z,3.00
2022-11-24T00:54:13.957Z,2.40
2022-11-24T00:56:43.336Z,1.88
2022-11-24T00:59:12.526Z,1.98
2022-11-24T01:01:43.529Z,1.90
2022-11-24T01:04:13.644Z,1.60
2022-11-24T01:06:43.568Z,2.08
2022-11-24T01:09:13.042Z,2.15
2022-11-24T01:12:01.803Z,1.60
2022-11-24T01:14:32.548Z,1.10
2022-11-24T01:17:04.488Z,1.50
2022-11-24T01:19:33.827Z,1.17
2022-11-24T01:22:03.117Z,1.70
2022-11-24T01:24:32.755Z,1.75
2022-11-24T01:27:01.932Z,2.10
2022-11-24T01:29:31.089Z,2.10
2022-11-24T01:32:00.190Z,2.28
2022-11-24T01:34:29.718Z,2.45
2022-11-24T01:36:58.729Z,1.95
2022-11-24T01:39:28.261Z,1.30
2022-11-24T01:41:57.230Z,0.88
2022-11-24T01:44:29.318Z,1.20
2022-11-24T01:47:03.680Z,1.35
2022-11-24T01:49:46.059Z,1.80
2022-11-24T01:52:28.895Z,1.80
2022-11-24T01:55:02.528Z,2.97
2022-11-24T01:57:57.103Z,4.93
2022-11-24T02:00:26.973Z,5.57
2022-11-24T02:02:56.127Z,4.38
2022-11-24T02:05:38.624Z,4.05
2022-11-24T02:08:15.615Z,4.50
2022-11-24T02:10:46.904Z,2.40
2022-11-24T02:13:16.940Z,1.95
2022-11-24T02:15:45.906Z,2.70
2022-11-24T02:18:15.430Z,4.80
2022-11-24T02:20:44.498Z,4.82
2022-11-24T02:23:20.606Z,3.60
2022-11-24T02:26:14.238Z,4.30
2022-11-24T02:28:43.549Z,5.22
2022-11-24T02:31:12.945Z,5.65
2022-11-24T02:33:42.647Z,5.78
2022-11-24T02:36:11.632Z,5.28
2022-11-24T02:38:41.033Z,3.92
2022-11-24T02:41:15.469Z,4.10
2022-11-24T02:43:50.860Z,4.10
2022-11-24T02:46:20.158Z,4.00
2022-11-24T02:48:49.265Z,4.35
2022-11-24T02:51:18.933Z,5.35
2022-11-24T02:53:47.898Z,4.97
2022-11-24T02:56:17.073Z,4.40
2022-11-24T02:58:45.945Z,4.10
2022-11-24T03:01:15.249Z,3.90
2022-11-24T03:03:44.362Z,3.35
2022-11-24T03:06:13.535Z,3.70
2022-11-24T03:08:42.857Z,4.13
2022-11-24T03:11:12.018Z,3.20
2022-11-24T03:13:41.328Z,4.22
2022-11-24T03:16:11.542Z,4.38
2022-11-24T03:18:40.929Z,3.85
2022-11-24T03:21:10.142Z,4.20
2022-11-24T03:23:39.338Z,3.80
2022-11-24T03:26:10.130Z,4.18
2022-11-24T03:28:39.297Z,4.28
2022-11-24T03:31:09.649Z,3.65
2022-11-24T03:33:39.276Z,4.53
2022-11-24T03:36:09.508Z,4.93
2022-11-24T03:38:39.018Z,5.07
2022-11-24T03:41:10.249Z,4.80
2022-11-24T03:43:44.041Z,5.47
2022-11-24T03:46:14.325Z,4.78
2022-11-24T03:48:43.315Z,5.07
2022-11-24T03:51:12.838Z,4.30
2022-11-24T03:53:41.907Z,4.50
2022-11-24T03:56:11.221Z,4.60
2022-11-24T03:58:40.376Z,4.43
2022-11-24T04:01:09.516Z,3.28
2022-11-24T04:03:38.361Z,4.70
2022-11-24T04:06:07.610Z,4.68
2022-11-24T04:08:36.515Z,4.57
2022-11-24T04:11:05.694Z,4.50
2022-11-24T04:13:34.541Z,4.38
2022-11-24T04:16:08.485Z,4.45
2022-11-24T04:18:37.641Z,5.40
2022-11-24T04:21:06.845Z,6.38
2022-11-24T04:23:36.263Z,6.85
2022-11-24T04:26:05.109Z,5.40
2022-11-24T04:28:34.402Z,5.57
2022-11-24T04:31:07.307Z,5.90
2022-11-24T04:33:36.452Z,6.30
2022-11-24T04:36:05.538Z,6.10
2022-11-24T04:39:20.064Z,5.88
2022-11-24T04:41:23.762Z,6.00
2022-11-24T04:43:52.798Z,6.32
2022-11-24T04:46:22.035Z,5.40
2022-11-24T04:48:51.605Z,5.40
2022-11-24T04:51:20.772Z,5.35
2022-11-24T04:53:53.085Z,5.22
2022-11-24T04:56:23.257Z,5.13
2022-11-24T04:58:52.132Z,5.45
2022-11-24T05:01:21.222Z,5.05
2022-11-24T05:03:50.298Z,6.13
2022-11-24T05:06:20.055Z,5.93
2022-11-24T05:08:52.183Z,5.75
2022-11-24T05:11:21.377Z,6.63
2022-11-24T05:13:50.263Z,7.63
2022-11-24T05:16:19.739Z,7.13
2022-11-24T05:18:49.016Z,6.45
2022-11-24T05:21:18.226Z,6.50
2022-11-24T05:23:47.258Z,6.18
2022-11-24T05:26:16.465Z,7.17
2022-11-24T05:28:45.477Z,6.55
2022-11-24T05:31:14.647Z,7.68
2022-11-24T05:33:44.509Z,8.80
2022-11-24T05:36:33.462Z,14.52
2022-11-24T05:39:02.737Z,11.27
2022-11-24T05:41:31.530Z,8.55
2022-11-24T05:44:01.251Z,9.05
2022-11-24T05:46:30.106Z,8.70
2022-11-24T05:48:59.201Z,8.95
2022-11-24T05:51:29.255Z,9.60
2022-11-24T05:53:58.241Z,10.75
2022-11-24T05:56:27.400Z,11.88
2022-11-24T05:58:57.271Z,10.00
2022-11-24T06:01:26.182Z,10.77
2022-11-24T06:03:57.749Z,11.45
2022-11-24T06:06:26.988Z,22.23
2022-11-24T06:08:56.196Z,16.25
2022-11-24T06:11:25.227Z,12.23
2022-11-24T06:13:54.250Z,9.70
2022-11-24T06:16:23.809Z,11.57
2022-11-24T06:18:52.904Z,10.77
2022-11-24T06:21:22.391Z,10.27
2022-11-24T06:23:51.305Z,9.73
2022-11-24T06:26:20.720Z,5.57
2022-11-24T06:28:50.392Z,7.43
2022-11-24T06:31:19.668Z,7.80
2022-11-24T06:33:48.708Z,8.45
2022-11-24T06:36:18.102Z,8.68
2022-11-24T06:38:47.574Z,8.90
2022-11-24T06:41:17.863Z,7.50
2022-11-24T06:43:48.629Z,8.63
2022-11-24T06:46:17.965Z,5.80
2022-11-24T06:48:46.811Z,6.22
2022-11-24T06:51:15.714Z,6.30
2022-11-24T06:53:44.503Z,8.48
2022-11-24T06:56:16.973Z,7.20
2022-11-24T06:58:49.557Z,7.20
2022-11-24T07:01:22.004Z,6.70
2022-11-24T07:03:52.991Z,6.23
2022-11-24T07:06:23.585Z,6.22
2022-11-24T07:08:54.060Z,6.95
2022-11-24T07:11:25.853Z,7.45
2022-11-24T07:13:59.907Z,7.47
2022-11-24T07:16:30.662Z,8.63
2022-11-24T07:19:01.315Z,8.35
2022-11-24T07:21:31.786Z,8.90
2022-11-24T07:24:00.639Z,7.80
2022-11-24T07:26:29.689Z,6.93
2022-11-24T07:28:58.741Z,6.67
2022-11-24T07:31:27.899Z,7.65
2022-11-24T07:33:57.109Z,7.60
2022-11-24T07:36:26.613Z,7.28
2022-11-24T07:38:55.656Z,7.32
2022-11-24T07:41:24.825Z,8.18
2022-11-24T07:43:54.146Z,7.18
2022-11-24T07:46:23.338Z,8.03
2022-11-24T07:48:52.419Z,7.40
2022-11-24T07:51:21.768Z,6.73
2022-11-24T07:53:51.060Z,5.80
2022-11-24T07:56:20.576Z,6.45
2022-11-24T07:58:52.869Z,7.18
2022-11-24T08:01:22.750Z,6.78
2022-11-24T08:03:52.337Z,6.03
2022-11-24T08:06:26.120Z,6.93
2022-11-24T08:08:57.580Z,8.52
2022-11-24T08:11:27.393Z,8.57
2022-11-24T08:13:56.603Z,9.97
2022-11-24T08:16:26.319Z,10.60
2022-11-24T08:18:57.041Z,10.02
2022-11-24T08:21:26.903Z,9.38
2022-11-24T08:23:59.265Z,11.15
2022-11-24T08:26:29.201Z,10.13
2022-11-24T08:29:00.036Z,8.90
2022-11-24T08:31:34.634Z,9.98
2022-11-24T08:34:06.615Z,10.30
2022-11-24T08:36:36.408Z,9.63
2022-11-24T08:39:05.887Z,10.73
2022-11-24T08:41:35.269Z,10.00
2022-11-24T08:44:05.543Z,10.60
2022-11-24T08:46:34.664Z,9.10
2022-11-24T08:49:03.765Z,7.27
2022-11-24T08:51:33.005Z,7.70
2022-11-24T08:54:02.945Z,6.50
2022-11-24T08:56:34.715Z,8.10
2022-11-24T08:59:04.356Z,8.50
2022-11-24T09:01:34.380Z,8.20
2022-11-24T09:04:03.543Z,8.90
2022-11-24T09:06:32.680Z,8.30
2022-11-24T09:09:02.432Z,9.30
2022-11-24T09:11:32.073Z,9.70
2022-11-24T09:14:01.183Z,10.43
2022-11-24T09:16:30.994Z,9.50
2022-11-24T09:19:06.086Z,9.40
2022-11-24T09:21:38.798Z,9.25
2022-11-24T09:24:12.214Z,9.43
2022-11-24T09:26:46.132Z,9.65
2022-11-24T09:29:16.932Z,9.10
2022-11-24T09:31:46.371Z,9.95
2022-11-24T09:34:17.058Z,9.90
2022-11-24T09:36:46.364Z,9.13
2022-11-24T09:39:15.390Z,9.50
2022-11-24T09:42:04.065Z,10.30
2022-11-24T09:44:42.830Z,10.48
2022-11-24T09:47:56.400Z,10.50
2022-11-24T09:50:28.428Z,10.40
2022-11-24T09:53:34.746Z,9.80
2022-11-24T09:56:20.799Z,10.05
2022-11-24T09:58:55.712Z,10.70
2022-11-24T10:01:39.520Z,11.30
2022-11-24T10:04:41.946Z,12.25
2022-11-24T10:07:24.263Z,11.13
2022-11-24T10:09:56.210Z,10.97
2022-11-24T10:12:49.223Z,10.70
2022-11-24T10:15:27.407Z,10.32
2022-11-24T10:18:23.264Z,10.52
2022-11-24T10:21:19.668Z,10.98
2022-11-24T10:24:10.350Z,9.87
2022-11-24T10:26:42.486Z,10.45
2022-11-24T10:29:14.991Z,9.00
2022-11-24T10:31:47.132Z,7.18
2022-11-24T10:34:24.541Z,6.55
2022-11-24T10:37:27.075Z,6.32
2022-11-24T10:40:17.241Z,6.10
2022-11-24T10:42:56.488Z,6.25
2022-11-24T10:45:27.922Z,5.83
2022-11-24T10:47:59.860Z,6.18
2022-11-24T10:50:34.160Z,6.03
2022-11-24T10:53:21.717Z,6.20
2022-11-24T10:56:05.863Z,6.50
2022-11-24T10:58:39.999Z,6.90
2022-11-24T11:01:15.350Z,6.32
2022-11-24T11:04:02.677Z,6.10
2022-11-24T11:06:33.715Z,5.95
2022-11-24T11:09:09.459Z,7.27
2022-11-24T11:11:40.859Z,6.97
2022-11-24T11:14:14.141Z,6.80
2022-11-24T11:16:53.468Z,6.03
2022-11-24T11:19:50.020Z,7.20
2022-11-24T11:22:25.255Z,6.57
2022-11-24T11:25:12.882Z,7.18
2022-11-24T11:27:42.812Z,8.40
2022-11-24T11:36:18.029Z,6.38
2022-11-24T11:38:48.467Z,6.93
2022-11-24T11:41:31.634Z,7.43
2022-11-24T11:44:27.616Z,7.57
2022-11-24T11:47:00.707Z,8.77
2022-11-24T11:49:30.116Z,9.63
2022-11-24T11:52:36.240Z,9.57
2022-11-24T11:55:23.720Z,9.32
2022-11-24T11:58:09.293Z,8.53
2022-11-24T12:00:46.757Z,8.40
2022-11-24T12:03:34.416Z,8.85
2022-11-24T12:06:34.848Z,8.75
2022-11-24T12:09:35.225Z,8.95
2022-11-24T12:12:26.801Z,8.97
2022-11-24T12:15:22.378Z,9.88
2022-11-24T12:18:33.063Z,9.80
2022-11-24T12:21:28.811Z,12.10
2022-11-24T12:24:21.049Z,12.63
2022-11-24T12:27:05.503Z,13.32
2022-11-24T12:29:59.254Z,14.55
2022-11-24T12:32:58.799Z,12.02
2022-11-24T12:35:37.214Z,9.52
2022-11-24T12:38:15.010Z,10.40
2022-11-24T12:41:33.787Z,9.30
2022-11-24T12:43:58.747Z,9.40
2022-11-24T12:46:58.877Z,6.57
2022-11-24T12:49:46.042Z,8.20
2022-11-24T12:52:45.370Z,8.20
2022-11-24T12:55:25.000Z,8.32
2022-11-24T12:58:25.537Z,9.52
2022-11-24T13:01:47.824Z,9.57
2022-11-24T13:04:32.115Z,9.30
2022-11-24T13:17:58.387Z,8.63
2022-11-24T13:30:35.883Z,6.00
2022-11-24T13:36:48.650Z,7.28
2022-11-24T13:42:44.056Z,6.85
2022-11-24T13:58:44.134Z,7.95
2022-11-24T14:04:40.703Z,7.60
2022-11-24T14:10:39.154Z,7.03
2022-11-24T14:16:37.730Z,6.75
2022-11-24T14:27:51.825Z,7.63
2022-11-24T14:36:31.376Z,10.30
2022-11-24T14:42:30.524Z,7.32
2022-11-24T14:45:04.997Z,9.10
2022-11-24T14:47:40.245Z,11.50
2022-11-24T14:50:27.851Z,7.30
2022-11-24T14:52:59.163Z,6.45
2022-11-24T14:55:40.232Z,6.97
2022-11-24T14:58:41.834Z,7.13
2022-11-24T15:01:29.350Z,6.93
2022-11-24T15:04:32.862Z,7.25
2022-11-24T15:07:30.272Z,7.55
2022-11-24T15:10:05.116Z,7.63
2022-11-24T15:12:55.000Z,8.68
2022-11-24T15:15:37.276Z,7.63
2022-11-24T15:18:08.521Z,7.85
2022-11-24T15:20:48.012Z,7.68
2022-11-24T15:23:23.512Z,7.15
2022-11-24T15:26:18.956Z,7.88
2022-11-24T15:28:48.362Z,7.32
2022-11-24T15:31:17.311Z,7.78
2022-11-24T15:33:46.401Z,8.00
2022-11-24T15:36:17.819Z,7.70
2022-11-24T15:38:47.003Z,8.82
2022-11-24T15:41:27.129Z,10.13
2022-11-24T15:44:00.137Z,7.20
2022-11-24T15:46:31.750Z,8.73
2022-11-24T15:49:01.092Z,9.55
2022-11-24T15:51:29.964Z,7.60
2022-11-24T15:54:01.349Z,7.53
2022-11-24T15:56:35.451Z,10.33
2022-11-24T15:59:05.672Z,18.13
2022-11-24T16:01:35.459Z,9.30
2022-11-24T16:04:04.828Z,8.80
2022-11-24T16:06:33.969Z,6.93
2022-11-24T16:09:03.037Z,6.78
2022-11-24T16:11:32.151Z,5.75
2022-11-24T16:14:01.173Z,6.15
2022-11-24T16:16:30.529Z,6.20
2022-11-24T16:18:59.565Z,6.20
2022-11-24T16:21:28.542Z,5.90
2022-11-24T16:23:57.806Z,6.18
2022-11-24T16:26:26.694Z,5.83
2022-11-24T16:28:56.061Z,5.93
2022-11-24T16:31:25.313Z,6.53
2022-11-24T16:33:54.398Z,7.10
2022-11-24T16:36:24.086Z,7.25
2022-11-24T16:38:53.526Z,7.90
2022-11-24T16:41:22.807Z,8.88
2022-11-24T16:43:51.810Z,8.73
2022-11-24T16:46:23.240Z,9.07
2022-11-24T16:48:56.056Z,8.38
2022-11-24T16:51:31.398Z,9.07
2022-11-24T16:54:05.556Z,8.88
2022-11-24T16:56:35.420Z,9.95
2022-11-24T16:59:04.943Z,11.32
2022-11-24T17:01:34.829Z,29.73
2022-11-24T17:04:06.022Z,15.18
2022-11-24T17:06:38.864Z,12.88
2022-11-24T17:09:07.813Z,15.43
2022-11-24T17:11:36.857Z,12.63
2022-11-24T17:14:05.911Z,8.70
2022-11-24T17:16:35.841Z,12.80
2022-11-24T17:19:06.601Z,12.25
2022-11-24T17:21:36.459Z,14.25
2022-11-24T17:24:06.433Z,13.52
2022-11-24T17:26:36.501Z,11.37
2022-11-24T17:29:05.464Z,10.57
2022-11-24T17:31:38.352Z,9.95
2022-11-24T17:34:09.549Z,9.63
2022-11-24T17:36:39.090Z,7.50
2022-11-24T17:39:08.697Z,9.88
2022-11-24T17:41:38.710Z,8.23
2022-11-24T17:44:10.839Z,7.78
2022-11-24T17:46:40.132Z,7.28
2022-11-24T17:49:09.416Z,6.78
2022-11-24T17:51:38.387Z,5.78
2022-11-24T17:54:31.203Z,6.27
2022-11-24T17:56:56.569Z,6.35
2022-11-24T17:59:25.648Z,6.57
2022-11-24T18:01:56.240Z,6.82
2022-11-24T18:04:25.203Z,6.72
2022-11-24T18:06:54.300Z,7.30
2022-11-24T18:09:23.307Z,7.18
2022-11-24T18:11:53.193Z,6.93
2022-11-24T18:14:22.124Z,7.45
2022-11-24T18:16:51.460Z,9.63
2022-11-24T18:19:20.627Z,19.88
2022-11-24T18:21:49.709Z,15.13
2022-11-24T18:24:22.709Z,11.10
2022-11-24T18:26:53.223Z,8.50
2022-11-24T18:29:23.195Z,6.43
2022-11-24T18:31:52.229Z,6.55
2022-11-24T18:34:21.278Z,9.95
2022-11-24T18:36:53.082Z,9.35
2022-11-24T18:39:22.673Z,10.65
2022-11-24T18:41:51.601Z,7.32
2022-11-24T18:44:20.854Z,8.20
2022-11-24T18:46:50.574Z,9.23
2022-11-24T18:49:19.685Z,7.43
2022-11-24T18:51:48.482Z,12.30
2022-11-24T18:54:17.588Z,14.85
2022-11-24T18:56:47.138Z,10.55
2022-11-24T18:59:16.716Z,14.60
2022-11-24T19:01:47.265Z,11.07
2022-11-24T19:04:16.496Z,8.57
2022-11-24T19:06:45.736Z,8.20
2022-11-24T19:09:19.390Z,7.43
2022-11-24T19:11:49.088Z,7.50
2022-11-24T19:14:20.175Z,6.90
2022-11-24T19:16:49.362Z,6.53
2022-11-24T19:19:18.280Z,6.28
2022-11-24T19:21:47.590Z,6.13
2022-11-24T19:24:16.472Z,7.15
2022-11-24T19:26:46.298Z,6.60
2022-11-24T19:29:15.400Z,6.53
2022-11-24T19:31:44.846Z,6.30
2022-11-24T19:34:13.910Z,6.70
2022-11-24T19:36:44.406Z,6.70
2022-11-24T19:39:16.373Z,6.50
2022-11-24T19:41:45.670Z,6.20
2022-11-24T19:44:15.307Z,5.93
2022-11-24T19:46:44.420Z,5.22
2022-11-24T19:49:13.833Z,6.00
2022-11-24T19:51:42.993Z,5.32
2022-11-24T19:54:15.749Z,5.40
2022-11-24T19:56:45.014Z,5.80
2022-11-24T19:59:16.242Z,5.10
2022-11-24T20:01:45.402Z,5.43
2022-11-24T20:04:16.511Z,5.30
2022-11-24T20:06:48.390Z,5.50
2022-11-24T20:09:19.471Z,5.60
2022-11-24T20:11:49.740Z,5.93
2022-11-24T20:14:20.516Z,5.43
2022-11-24T20:16:49.692Z,5.47
2022-11-24T20:19:19.842Z,6.05
2022-11-24T20:21:50.960Z,6.03
2022-11-24T20:24:23.131Z,5.45
2022-11-24T20:26:57.604Z,6.32
2022-11-24T20:29:29.215Z,5.88
2022-11-24T20:31:59.723Z,6.25
2022-11-24T20:34:29.427Z,6.57
2022-11-24T20:36:58.288Z,6.40
2022-11-24T20:39:29.548Z,6.78
2022-11-24T20:41:59.551Z,5.10
2022-11-24T20:44:31.139Z,5.32
2022-11-24T20:47:01.545Z,6.30
2022-11-24T20:49:30.731Z,6.20
2022-11-24T20:52:00.496Z,5.75
2022-11-24T20:54:29.448Z,5.40
2022-11-24T20:56:58.424Z,5.63
2022-11-24T20:59:27.442Z,5.43
2022-11-24T21:01:56.741Z,5.60
2022-11-24T21:04:27.599Z,5.43
2022-11-24T21:06:57.048Z,5.80
2022-11-24T21:09:28.226Z,6.00
2022-11-24T21:11:57.597Z,5.90
2022-11-24T21:14:30.033Z,6.18
2022-11-24T21:17:01.710Z,6.93
2022-11-24T21:19:30.734Z,6.90
2022-11-24T21:21:59.813Z,7.07
2022-11-24T21:24:32.046Z,6.53
2022-11-24T21:27:01.131Z,7.10
2022-11-24T21:29:29.958Z,7.60
2022-11-24T21:31:59.700Z,6.20
2022-11-24T21:34:28.754Z,6.15
2022-11-24T21:36:57.857Z,6.60
2022-11-24T21:39:26.809Z,6.70
2022-11-24T21:41:56.047Z,6.57
2022-11-24T21:44:24.938Z,7.20
2022-11-24T21:46:56.111Z,7.03
2022-11-24T21:49:25.355Z,6.70
2022-11-24T21:51:56.506Z,6.25
2022-11-24T21:54:25.698Z,6.47
2022-11-24T21:56:55.340Z,6.05
2022-11-24T21:59:24.520Z,5.38
2022-11-24T22:01:53.539Z,5.50
2022-11-24T22:04:22.792Z,5.38
2022-11-24T22:06:53.679Z,5.22
2022-11-24T22:09:23.020Z,5.72
2022-11-24T22:11:53.688Z,7.95
2022-11-24T22:14:23.419Z,7.60
2022-11-24T22:16:52.744Z,6.07
2022-11-24T22:19:21.843Z,5.82
2022-11-24T22:21:51.288Z,7.72
2022-11-24T22:24:25.785Z,6.40
2022-11-24T22:26:56.244Z,6.57
2022-11-24T22:29:25.348Z,5.90
2022-11-24T22:31:54.586Z,6.20
2022-11-24T22:34:23.649Z,7.65
2022-11-24T22:36:52.734Z,7.80
2022-11-24T22:39:21.587Z,7.82
2022-11-24T22:41:50.872Z,7.28
2022-11-24T22:44:19.778Z,7.57
2022-11-24T22:46:49.575Z,5.70
2022-11-24T22:49:18.574Z,5.20
2022-11-24T22:51:47.707Z,4.72
2022-11-24T22:54:16.647Z,5.10
2022-11-24T22:56:45.941Z,4.80
2022-11-24T22:59:14.870Z,5.18
2022-11-24T23:01:44.082Z,4.80
2022-11-24T23:04:13.058Z,5.05
2022-11-24T23:06:42.239Z,5.03
2022-11-24T23:09:13.380Z,4.78
2022-11-24T23:11:42.639Z,5.10
2022-11-24T23:14:16.829Z,4.95
2022-11-24T23:16:47.559Z,4.90
2022-11-24T23:19:16.451Z,4.97
2022-11-24T23:21:45.621Z,5.13
2022-11-24T23:24:14.588Z,5.28
2022-11-24T23:26:44.219Z,5.40
2022-11-24T23:29:13.271Z,5.53
2022-11-24T23:31:42.457Z,5.28
2022-11-24T23:34:11.577Z,5.28
2022-11-24T23:36:41.403Z,5.35
2022-11-24T23:39:13.572Z,5.30
2022-11-24T23:41:42.993Z,5.18
2022-11-24T23:44:12.237Z,4.70
2022-11-24T23:46:41.436Z,4.43
2022-11-24T23:49:10.523Z,5.30
2022-11-24T23:51:43.117Z,5.17
2022-11-24T23:54:12.472Z,4.87
2022-11-24T23:56:41.442Z,4.93
2022-11-24T23:59:12.701Z,4.97
